createdAt,value
2019-05-23T00:05:11.178Z,25.05
2019-05-23T00:10:17.749Z,21.75
2019-05-23T00:15:24.446Z,19.40
2019-05-23T00:20:31.129Z,17.90
2019-05-23T00:25:37.811Z,17.90
2019-05-23T00:30:54.094Z,17.47
2019-05-23T00:35:59.896Z,16.90
2019-05-23T00:41:05.267Z,16.90
2019-05-23T00:46:10.311Z,17.20
2019-05-23T00:51:16.878Z,16.30
2019-05-23T00:56:22.858Z,16.85
2019-05-23T01:01:27.914Z,17.50
2019-05-23T01:06:34.500Z,396.50
2019-05-23T01:11:39.851Z,513.70
2019-05-23T01:16:45.817Z,734.70
2019-05-23T01:22:04.912Z,768.15
2019-05-23T01:27:11.267Z,844.40
2019-05-23T01:32:21.026Z,722.15
2019-05-23T01:37:26.898Z,596.30
2019-05-23T01:42:31.983Z,496.80
2019-05-23T01:47:37.312Z,404.50
2019-05-23T01:52:42.960Z,314.70
2019-05-23T01:57:48.025Z,216.60
2019-05-23T02:02:53.079Z,141.50
2019-05-23T02:07:58.122Z,88.60
2019-05-23T02:13:03.870Z,53.40
2019-05-23T02:18:10.174Z,34.70
2019-05-23T02:23:15.364Z,24.30
2019-05-23T02:28:21.286Z,22.20
2019-05-23T02:33:26.450Z,19.60
2019-05-23T02:38:43.468Z,19.10
2019-05-23T02:44:02.045Z,17.30
2019-05-23T02:49:08.724Z,16.60
2019-05-23T02:54:14.887Z,16.70
2019-05-23T02:59:21.514Z,17.65
2019-05-23T03:04:31.045Z,17.10
2019-05-23T03:09:37.119Z,17.00
2019-05-23T03:14:43.801Z,16.50
2019-05-23T03:19:49.461Z,15.85
2019-05-23T03:24:54.807Z,16.45
2019-05-23T03:29:59.847Z,17.20
2019-05-23T03:35:12.705Z,16.70
2019-05-23T03:40:19.179Z,16.70
2019-05-23T03:45:28.951Z,15.70
2019-05-23T03:50:33.993Z,16.10
2019-05-23T03:55:39.451Z,16.20
2019-05-23T04:00:46.118Z,16.80
2019-05-23T04:05:51.181Z,16.65
2019-05-23T04:10:57.169Z,16.20
2019-05-23T04:16:03.605Z,16.00
2019-05-23T04:21:09.098Z,16.10
2019-05-23T04:26:14.145Z,16.70
2019-05-23T04:31:19.405Z,16.75
2019-05-23T04:36:24.452Z,15.60
2019-05-23T04:41:30.209Z,15.50
2019-05-23T04:46:35.479Z,16.50
2019-05-23T04:51:40.835Z,16.30
2019-05-23T04:56:46.291Z,16.20
2019-05-23T05:01:51.856Z,16.00
2019-05-23T05:06:57.518Z,16.10
2019-05-23T05:12:03.824Z,16.85
2019-05-23T05:17:09.252Z,16.95
2019-05-23T05:22:14.309Z,16.70
2019-05-23T05:27:20.777Z,16.40
2019-05-23T05:32:43.441Z,15.30
2019-05-23T05:37:33.838Z,15.10
2019-05-23T05:42:39.908Z,16.20
2019-05-23T05:47:44.965Z,15.50
2019-05-23T05:52:50.320Z,15.95
2019-05-23T05:57:55.401Z,15.80
2019-05-23T06:03:05.147Z,15.50
2019-05-23T06:08:10.404Z,15.55
2019-05-23T06:13:16.049Z,15.40
2019-05-23T06:18:21.499Z,16.40
2019-05-23T06:23:26.664Z,14.60
2019-05-23T06:28:32.417Z,16.30
2019-05-23T06:33:37.789Z,16.20
2019-05-23T06:38:43.462Z,16.20
2019-05-23T06:43:48.831Z,16.40
2019-05-23T06:48:53.877Z,15.50
2019-05-23T06:53:59.010Z,15.90
2019-05-23T06:59:04.877Z,15.50
2019-05-23T07:04:09.878Z,15.75
2019-05-23T07:09:14.985Z,15.00
2019-05-23T07:14:20.126Z,15.40
2019-05-23T07:19:25.187Z,15.40
2019-05-23T07:24:30.230Z,14.50
2019-05-23T07:29:39.700Z,155.60
2019-05-23T07:34:44.734Z,415.60
2019-05-23T07:39:49.774Z,449.70
2019-05-23T07:44:55.852Z,552.75
2019-05-23T07:50:00.892Z,399.25
2019-05-23T07:55:23.990Z,277.90
2019-05-23T08:00:30.793Z,181.50
2019-05-23T08:05:37.133Z,112.00
2019-05-23T08:10:42.192Z,71.80
2019-05-23T08:15:47.551Z,47.70
2019-05-23T08:20:52.573Z,31.70
2019-05-23T08:25:57.674Z,26.25
2019-05-23T08:31:02.698Z,22.85
2019-05-23T08:36:09.293Z,20.90
2019-05-23T08:41:14.329Z,20.20
2019-05-23T08:46:34.610Z,19.00
2019-05-23T08:51:39.683Z,18.20
2019-05-23T08:56:44.723Z,17.90
2019-05-23T09:01:49.778Z,18.10
2019-05-23T09:06:56.558Z,17.80
2019-05-23T09:12:01.605Z,19.35
2019-05-23T09:17:07.262Z,19.05
2019-05-23T09:22:13.372Z,18.50
2019-05-23T09:27:18.408Z,19.50
2019-05-23T09:32:23.453Z,18.80
2019-05-23T09:37:29.027Z,19.50
2019-05-23T09:42:34.154Z,20.20
2019-05-23T09:47:39.521Z,19.40
2019-05-23T09:52:44.568Z,19.20
2019-05-23T09:57:49.626Z,20.30
2019-05-23T10:02:54.873Z,18.80
2019-05-23T10:07:59.959Z,19.90
2019-05-23T10:13:05.277Z,19.50
2019-05-23T10:18:11.843Z,19.57
2019-05-23T10:23:16.898Z,19.50
2019-05-23T10:28:21.963Z,20.25
2019-05-23T10:33:26.929Z,20.93
2019-05-23T10:38:31.948Z,20.10
2019-05-23T10:43:36.916Z,19.55
2019-05-23T10:48:42.766Z,19.30
2019-05-23T10:53:47.726Z,19.55
2019-05-23T10:58:52.770Z,19.90
2019-05-23T11:03:57.904Z,19.85
2019-05-23T11:09:03.265Z,22.00
2019-05-23T11:14:09.767Z,21.10
2019-05-23T11:19:14.802Z,21.40
2019-05-23T11:24:20.374Z,18.50
2019-05-23T11:29:27.401Z,20.30
2019-05-23T11:34:33.639Z,22.35
2019-05-23T11:44:45.685Z,22.70
2019-05-23T11:49:51.652Z,21.97
2019-05-23T11:54:56.613Z,21.00
2019-05-23T12:00:03.509Z,23.10
2019-05-23T12:05:12.913Z,21.55
2019-05-23T12:10:19.768Z,20.40
2019-05-23T12:15:26.527Z,19.55
2019-05-23T12:20:31.792Z,20.65
2019-05-23T12:25:37.018Z,21.40
2019-05-23T12:30:42.078Z,21.90
2019-05-23T12:35:50.207Z,22.60
2019-05-23T12:40:55.250Z,22.05
2019-05-23T12:46:00.441Z,21.85
2019-05-23T12:51:07.006Z,20.70
2019-05-23T12:57:02.820Z,18.80
2019-05-23T13:02:09.422Z,18.80
2019-05-23T13:07:14.466Z,18.60
2019-05-23T13:12:19.520Z,21.70
2019-05-23T13:17:24.555Z,22.65
2019-05-23T13:22:29.606Z,22.05
2019-05-23T13:27:34.763Z,20.80
2019-05-23T13:32:39.817Z,19.20
2019-05-23T13:37:53.530Z,19.40
2019-05-23T13:42:51.873Z,88.10
2019-05-23T13:47:56.866Z,135.10
2019-05-23T13:53:02.297Z,124.25
2019-05-23T13:58:07.291Z,122.20
2019-05-23T14:03:13.082Z,176.10
2019-05-23T14:08:19.359Z,155.50
2019-05-23T14:13:26.708Z,136.40
2019-05-23T14:18:33.470Z,292.20
2019-05-23T14:23:38.624Z,307.35
2019-05-23T14:28:49.977Z,319.60
2019-05-23T14:34:01.543Z,295.80
2019-05-23T14:39:08.183Z,329.85
2019-05-23T14:44:13.650Z,352.50
2019-05-23T14:49:23.292Z,317.80
2019-05-23T14:54:36.320Z,423.50
2019-05-23T14:59:41.946Z,407.95
2019-05-23T15:04:47.370Z,451.90
2019-05-23T15:09:52.522Z,356.90
2019-05-23T15:14:57.682Z,294.45
2019-05-23T15:20:02.736Z,266.60
2019-05-23T15:25:07.784Z,390.10
2019-05-23T15:30:12.900Z,423.10
2019-05-23T15:35:18.684Z,354.30
2019-05-23T15:40:24.255Z,326.30
2019-05-23T15:45:29.911Z,251.10
2019-05-23T15:50:39.778Z,181.20
2019-05-23T15:56:26.003Z,182.30
2019-05-23T16:01:13.707Z,188.00
2019-05-23T16:06:26.866Z,140.30
2019-05-23T16:11:32.228Z,131.00
2019-05-23T16:16:37.883Z,170.60
2019-05-23T16:21:43.350Z,255.50
2019-05-23T16:26:48.693Z,326.50
2019-05-23T16:31:53.750Z,322.90
2019-05-23T16:36:58.831Z,352.75
2019-05-23T16:42:03.851Z,295.25
2019-05-23T16:47:08.856Z,366.90
2019-05-23T16:52:13.955Z,352.20
2019-05-23T16:57:23.697Z,377.20
2019-05-23T17:02:34.595Z,563.65
2019-05-23T17:07:57.466Z,603.20
2019-05-23T17:13:04.821Z,532.60
2019-05-23T17:18:12.377Z,449.95
2019-05-23T17:23:31.338Z,340.50
2019-05-23T17:28:43.983Z,251.70
2019-05-23T17:33:50.814Z,202.60
2019-05-23T17:38:56.018Z,145.50
2019-05-23T17:44:01.182Z,111.00
2019-05-23T17:49:06.225Z,81.15
2019-05-23T17:54:11.986Z,58.90
2019-05-23T17:59:17.347Z,43.30
2019-05-23T18:04:23.297Z,33.80
2019-05-23T18:09:29.263Z,26.50
2019-05-23T18:14:34.326Z,23.80
2019-05-23T18:19:39.684Z,22.20
2019-05-23T18:24:44.739Z,20.90
2019-05-23T18:29:50.086Z,19.30
2019-05-23T18:34:55.858Z,19.10
2019-05-23T18:40:00.910Z,20.00
2019-05-23T18:45:06.268Z,19.00
2019-05-23T18:50:12.231Z,18.30
2019-05-23T18:55:17.900Z,317.55
2019-05-23T19:00:35.390Z,288.45
2019-05-23T19:05:40.732Z,214.50
2019-05-23T19:10:46.920Z,424.80
2019-05-23T19:15:52.935Z,427.60
2019-05-23T19:20:59.019Z,380.55
2019-05-23T19:26:04.431Z,258.55
2019-05-23T19:31:10.383Z,175.30
2019-05-23T19:36:15.914Z,117.00
2019-05-23T19:41:36.045Z,206.30
2019-05-23T19:46:30.191Z,168.60
2019-05-23T19:51:35.473Z,268.00
2019-05-23T19:56:41.119Z,422.40
2019-05-23T20:02:08.727Z,413.65
2019-05-23T20:07:17.744Z,500.40
2019-05-23T20:12:23.285Z,668.00
2019-05-23T20:17:29.720Z,471.80
2019-05-23T20:22:34.838Z,359.40
2019-05-23T20:27:40.602Z,673.55
2019-05-23T20:32:45.979Z,525.30
2019-05-23T20:37:51.516Z,399.95
2019-05-23T20:42:56.652Z,350.50
2019-05-23T20:48:03.057Z,298.55
2019-05-23T20:53:08.241Z,269.90
2019-05-23T20:58:13.353Z,529.75
2019-05-23T21:03:28.228Z,571.90
2019-05-23T21:08:35.254Z,349.70
2019-05-23T21:13:40.778Z,307.50
2019-05-23T21:18:49.609Z,370.80
2019-05-23T21:23:56.842Z,290.90
2019-05-23T21:29:05.777Z,441.15
2019-05-23T21:34:12.264Z,515.95
2019-05-23T21:39:19.153Z,531.20
2019-05-23T21:44:25.806Z,496.10
2019-05-23T21:49:31.167Z,690.20
2019-05-23T21:54:37.054Z,511.30
2019-05-23T21:59:44.168Z,566.95
2019-05-23T22:09:58.380Z,769.65
2019-05-23T22:15:04.053Z,776.95
2019-05-23T22:20:09.052Z,809.30
2019-05-23T22:25:15.957Z,784.50
2019-05-23T22:30:21.005Z,702.00
2019-05-23T22:35:26.154Z,615.20
2019-05-23T22:40:31.202Z,506.10
2019-05-23T22:45:36.581Z,409.20
2019-05-23T22:50:41.557Z,348.40
2019-05-23T22:55:46.759Z,278.70
2019-05-23T23:00:52.661Z,207.15
2019-05-23T23:05:57.908Z,154.20
2019-05-23T23:11:05.131Z,123.25
2019-05-23T23:16:13.009Z,90.80
2019-05-23T23:21:18.465Z,272.45
2019-05-23T23:26:24.430Z,280.00
2019-05-23T23:31:29.484Z,394.05
2019-05-23T23:36:34.523Z,498.55
2019-05-23T23:41:48.435Z,721.00
2019-05-23T23:47:13.651Z,688.85
2019-05-23T23:52:37.526Z,736.00
2019-05-23T23:58:02.014Z,752.50
